logo
App data

Greed: Black Border

Hack ‘n slash your way through this science-fiction-themed action/RPG. In the futuristic universe of GREED, the discovery of new interstellar travel possibilities has led to a new age of colonialization. The five largest colonial powers are entangled in a full-scale war over a new element called Ikarium, the recently discovered rare...
Store | Hub | SteamDB
Developer: Headup Games, Clockstone Publisher: Headup Games
Genre: Action, RPG
Languages: English, German
Tags: Action (48), RPG (42), Sci-fi (19), Action RPG (18), Co-op (15), Isometric (13), Indie (12), Singleplayer (9), Loot (5)
Category: Single-player, Co-op
Release date: Jan 13, 2010
Price: $4.99
Old userscore: 41% Owners: 100,000 .. 200,000
Followers: 615
Peak concurrent players yesterday: 2

Steam Spy is still in beta, so expect major bugs.

Owners data:

Access restricted.

This feature is only available to users with special access rights. Sorry.

If you want to proceed, you need to register or log in first and then back Steam Spy on Patreon. Look for Indie or Pro pledge.

Don't forget to use the same email as on Steam Spy!

If you've recently backed Steam Spy on Patreon, please note, that it might take around 15 minutes for your access rights to sync. In most cases you'll need to re-login on Steam Spy too.

Audience in 2 weeks:

Access restricted.

This feature is only available to users with special access rights. Sorry.

If you want to proceed, you need to register or log in first and then back Steam Spy on Patreon. Look for Indie or Pro pledge.

Don't forget to use the same email as on Steam Spy!

If you've recently backed Steam Spy on Patreon, please note, that it might take around 15 minutes for your access rights to sync. In most cases you'll need to re-login on Steam Spy too.

Peak daily concurrent players:

CCU data courtesy of SteamDB. Used with permission.

Hourly concurrent players:

Followers over time

Access restricted.

This feature is only available to users with special access rights. Sorry.

If you want to proceed, you need to register or log in first and then back Steam Spy on Patreon. Look for Indie or Pro pledge.

Don't forget to use the same email as on Steam Spy!

If you've recently backed Steam Spy on Patreon, please note, that it might take around 15 minutes for your access rights to sync. In most cases you'll need to re-login on Steam Spy too.

Views for top 50 videos on YouTube for this game:

Games similar to this one:

# Game Release date
Price
Score rank
(Userscore / Metascore)
Owners
Players
Playtime (Median)
1 [email protected] Feb 9, 2017 $14.99N/A (N/A/66%)0 .. 20,0000%00:00 (00:00)
2 Charlie Murder May 12, 2017 $9.99N/A (N/A)20,000 .. 50,0000%00:00 (00:00)
3 Raiden Legacy - Steam Edition Dec 10, 2015 $9.99N/A (N/A)20,000 .. 50,0000%00:00 (00:00)
4 Bladestar Jan 15, 2016 $4.99N/A (N/A)0 .. 20,0000%00:00 (00:00)
5 The Next World Mar 7, 2016 $12.99N/A (N/A)20,000 .. 50,0000%00:00 (00:00)
6 Chasing Dead Mar 3, 2016 N/AN/A (N/A)20,000 .. 50,0000%00:00 (00:00)
7 Tokyo Babel Mar 31, 2016 $34.99N/A (N/A)0 .. 20,0000%00:00 (00:00)
8 Silver Bullet: Prometheus Apr 8, 2016 $4.99N/A (N/A)0 .. 20,0000%00:00 (00:00)
9 Neighborhorde Jun 5, 2017 $4.99N/A (N/A)0 .. 20,0000%00:00 (00:00)
10 Dimensional Dec 14, 2016 $4.99N/A (N/A)0 .. 20,0000%00:00 (00:00)
11 Wicce May 5, 2016 $7.99N/A (N/A)0 .. 20,0000%00:00 (00:00)
12 Fossil Echo Jul 8, 2016 $9.99N/A (N/A/61%)20,000 .. 50,0000%00:00 (00:00)
13 Hide & Spook: The Haunted Alchemist Oct 28, 2016 FreeN/A (N/A)0 .. 20,0000%00:00 (00:00)
14 Phantaruk Aug 16, 2016 $4.99N/A (N/A/53%)20,000 .. 50,0000%00:00 (00:00)
15 Legends of the Universe - StarCore Jul 25, 2016 $1.99N/A (N/A)20,000 .. 50,0000%00:00 (00:00)
16 Flinthook Apr 18, 2017 $14.99N/A (N/A/80%)50,000 .. 100,0000%00:00 (00:00)
17 Aaero Apr 11, 2017 $14.99N/A (N/A)100,000 .. 200,0000%00:00 (00:00)
18 Xenus 2. White gold. Nov 23, 2016 $14.99N/A (N/A)50,000 .. 100,0000%00:00 (00:00)
19 NightZ Feb 14, 2017 $0.99N/A (N/A)20,000 .. 50,0000%00:00 (00:00)
20 A Rose in the Twilight Apr 11, 2017 $19.99N/A (N/A)20,000 .. 50,0000%00:00 (00:00)
21 Toukiden 2 Mar 21, 2017 $59.99N/A (N/A/73%)50,000 .. 100,0000%00:00 (00:00)
22 Masked Forces Nov 23, 2016 $0.99N/A (N/A)50,000 .. 100,0000%00:00 (00:00)
23 Xmas Shooting - Scramble!! Dec 16, 2016 $2.49N/A (N/A)0 .. 20,0000%00:00 (00:00)
24 Rosenkreuzstilette Feb 2, 2017 $9.99N/A (N/A)20,000 .. 50,0000%00:00 (00:00)
25 Putrefaction 2: Void Walker May 29, 2017 $4.99N/A (N/A)50,000 .. 100,0000%00:00 (00:00)
26 Xenon Valkyrie Feb 3, 2017 $9.99N/A (N/A)0 .. 20,0000%00:00 (00:00)
27 2 Ninjas 1 Cup Feb 3, 2017 $0.99N/A (N/A)0 .. 20,0000%00:00 (00:00)
28 Immortal Redneck Apr 25, 2017 $19.95N/A (N/A/70%)100,000 .. 200,0000%00:00 (00:00)
29 iStorm Mar 16, 2017 FreeN/A (N/A)0 .. 20,0000%00:00 (00:00)
30 Nongünz May 19, 2017 N/AN/A (N/A)20,000 .. 50,0000%00:00 (00:00)
31 I, Gladiator Apr 7, 2015 $7.99N/A (N/A)20,000 .. 50,0000%00:00 (00:00)
32 Epigenesis Aug 1, 2014 FreeN/A (N/A)100,000 .. 200,0000%00:00 (00:00)
33 Deathtrap Dungeon Jun 25, 1998 $6.99N/A (N/A)20,000 .. 50,0000%00:00 (00:00)
34 Wooden Sen'SeY Dec 5, 2013 $9.99N/A (N/A)20,000 .. 50,0000%00:00 (00:00)
35 Iron Soul Feb 26, 2014 $4.99N/A (N/A)0 .. 20,0000%00:00 (00:00)
36 The Dishwasher: Vampire Smile May 12, 2017 $9.99N/A (N/A)20,000 .. 50,0000%00:00 (00:00)
37 Alone in the Dark: Illumination Jun 11, 2015 $19.99N/A (N/A)20,000 .. 50,0000%00:00 (00:00)
38 Project Root May 1, 2014 $9.99N/A (N/A)20,000 .. 50,0000%00:00 (00:00)
39 Kraven Manor Sep 26, 2014 FreeN/A (N/A/58%)100,000 .. 200,0000%00:00 (00:00)
40 Vertical Drop Heroes HD Jul 25, 2014 $6.99N/A (N/A/70%)100,000 .. 200,0000%00:00 (00:00)
41 Red Johnson's Chronicles - 1+2 - Steam Special Edition Sep 5, 2014 $0.99N/A (N/A)0 .. 20,0000%00:00 (00:00)
42 Disney G-Force Jul 21, 2009 $19.99N/A (N/A/61%)0 .. 20,00050%00:39 (00:19)
43 Guns, Gore & Cannoli Apr 30, 2015 $9.99N/A (N/A/80%)100,000 .. 200,0000%00:00 (00:00)
44 Isbarah Feb 25, 2015 $13.99N/A (N/A)0 .. 20,0000%00:00 (00:00)
45 Vintage Year Jan 2, 2015 $3.99N/A (N/A)20,000 .. 50,0000%00:00 (00:00)
46 Kill to Collect Apr 6, 2016 $9.99N/A (N/A/57%)20,000 .. 50,0000%00:00 (00:00)
47 Caravan Sep 30, 2016 $9.99N/A (N/A)100,000 .. 200,0000%00:00 (00:00)
48 Word Rescue May 1, 1992 $4.99N/A (N/A)0 .. 20,0000%00:00 (00:00)
49 Terminal Velocity May 1, 1995 $6.99N/A (N/A)20,000 .. 50,0000%00:00 (00:00)
50 Stargunner Nov 19, 1996 FreeN/A (N/A)20,000 .. 50,0000%00:00 (00:00)
51 Skyhook May 17, 2016 $4.99N/A (N/A)0 .. 20,0000%00:00 (00:00)
52 Fighties Jul 13, 2015 $4.99N/A (N/A)50,000 .. 100,0000%00:00 (00:00)
53 Airport Madness: World Edition May 28, 2015 $9.99N/A (N/A)50,000 .. 100,0000%00:00 (00:00)
54 Princess Kaguya: Legend of the Moon Warrior Aug 4, 2015 $10.99N/A (N/A)0 .. 20,0000%00:00 (00:00)
55 Umihara Kawase Nov 2, 2015 $9.99N/A (N/A)0 .. 20,0000%00:00 (00:00)
56 Songs for a Hero - Definitive Edition Mar 24, 2016 $15.99N/A (N/A)200,000 .. 500,0000%00:00 (00:00)
57 Mayhem Triple Sep 4, 2015 $4.99N/A (N/A)0 .. 20,0000%00:00 (00:00)
58 King Lucas Dec 1, 2016 $4.99N/A (N/A)20,000 .. 50,0000%00:00 (00:00)
59 Mighty Gunvolt Sep 29, 2015 $4.99N/A (N/A)20,000 .. 50,0000%00:00 (00:00)

Tags over time:

Access restricted.

This feature is only available to users with special access rights. Sorry.

If you want to proceed, you need to register or log in first and then back Steam Spy on Patreon. Look for Indie or Pro pledge.

Don't forget to use the same email as on Steam Spy!

If you've recently backed Steam Spy on Patreon, please note, that it might take around 15 minutes for your access rights to sync. In most cases you'll need to re-login on Steam Spy too.

Owners of this game also own:

Access restricted.

This feature is only available to users with special access rights. Sorry.

If you want to proceed, you need to register or log in first and then back Steam Spy on Patreon. Look for Indie or Pro pledge.

Don't forget to use the same email as on Steam Spy!

If you've recently backed Steam Spy on Patreon, please note, that it might take around 15 minutes for your access rights to sync. In most cases you'll need to re-login on Steam Spy too.

Playtime distribution:

Access restricted.

This feature is only available to users with special access rights. Sorry.

If you want to proceed, you need to register or log in first and then back Steam Spy on Patreon. Look for Indie or Pro pledge.

Don't forget to use the same email as on Steam Spy!

If you've recently backed Steam Spy on Patreon, please note, that it might take around 15 minutes for your access rights to sync. In most cases you'll need to re-login on Steam Spy too.

Playtime (2 weeks):

Access restricted.

This feature is only available to users with special access rights. Sorry.

If you want to proceed, you need to register or log in first and then back Steam Spy on Patreon. Look for Indie or Pro pledge.

Don't forget to use the same email as on Steam Spy!

If you've recently backed Steam Spy on Patreon, please note, that it might take around 15 minutes for your access rights to sync. In most cases you'll need to re-login on Steam Spy too.

User reviews:

Login required.

Please register or log in to see this information.